Impacts METAR Board
IDs:

KMDW - Chicago/Midway Intl, IL, US

Updated at: 2100 UTC 24 Apr 2018
Potential Impact None Slight Moderate High
Time 24/09Z 24/10Z 24/11Z 24/12Z 24/13Z 24/14Z 24/15Z 24/16Z 24/17Z 24/18Z 24/19Z 24/20Z 24/21Z
Temp53 52 51 51 52 56 57 59 60 62 63 63 62
Dewpt39 42 39 40 43 45 48 48 48 49 49 49 49
Altim30.06 30.05 30.05 30.07 30.06 30.06 30.05 30.04 30.03 30.02 30.01 29.99 29.98
VIS10 10 10 10 10 10 10 10 10 10 10 10 10
CIG23 24 90 21 70 70 22 55 47 47 250 250 250
CoverOVCOVCBKNOVCBKNBKNBKNBKNBKNBKNBKNBKNBKN
FltCatMVFRMVFRVFRMVFRVFRVFRMVFRVFRVFRVFRVFRVFRVFR
WX--------------------------
WDir9060303036036090602050103040
WSpd3 4 7 5 4 5 10 7 14 7 9 7 9
WGst-- -- -- -- -- -- -- -- -- -- -- -- --
Raw hourly METARs
KMDW 240853Z 09003KT 10SM BKN023 OVC090 12/04 A3006 RMK AO2 DZE13 SLP179 P0000 60000 T01170039 56006
KMDW 240953Z 06004KT 10SM OVC024 11/06 A3005 RMK AO2 SLP175 T01110056
KMDW 241053Z 03007KT 10SM SCT021 BKN090 BKN250 11/04 A3005 RMK AO2 SLP177 T01060039
KMDW 241153Z 03005KT 10SM BKN021 OVC070 11/04 A3007 RMK AO2 SLP183 60000 T01060044 10117 20100 53001
KMDW 241253Z 36004KT 10SM FEW022 BKN070 BKN250 11/06 A3006 RMK AO2 SLP181 T01110061
KMDW 241353Z 36005KT 10SM FEW022 BKN070 BKN095 BKN250 13/07 A3006 RMK AO2 SLP179 T01330072
KMDW 241453Z 09010KT 10SM BKN022 BKN050 BKN095 BKN250 14/09 A3005 RMK AO2 SLP176 T01390089 58005
KMDW 241553Z 06007KT 10SM FEW020 BKN055 BKN100 BKN250 15/09 A3004 RMK AO2 SLP172 T01500089
KMDW 241653Z 02014KT 10SM FEW025 BKN047 BKN100 BKN250 16/09 A3003 RMK AO2 SLP170 T01560089
KMDW 241753Z 05007KT 020V080 10SM FEW025 BKN047 BKN080 BKN250 17/09 A3002 RMK AO2 SLP166 T01670094 10172 20106 58009
KMDW 241853Z 01009KT 10SM FEW027 SCT047 SCT080 BKN250 17/09 A3001 RMK AO2 SLP161 T01720094
KMDW 241953Z 03007KT 360V060 10SM FEW040 SCT080 BKN250 17/09 A2999 RMK AO2 SLP155 T01720094
KMDW 242053Z 04009KT 10SM FEW040 FEW065 SCT150 BKN250 17/09 A2998 RMK AO2 SLP151 T01670094 58014



Page loaded:  21:06 UTC  |   02:06 PM Pacific  |   03:06 PM Mountain  |   04:06 PM Central  |   05:06 PM Eastern

 

ADVISORIES

FORECASTS

FORECASTS

OBSERVATIONS

USER TOOLS

ABOUT US